Time;durP1;ratioP1;P1;durP2;ratioP2;P2;SDS_P1;SDS_P2;PMS_P1;PMS_P2;Temp;Humidity;BMP_temperature;BMP_pressure;BME280_temperature;BME280_humidity;BME280_pressure;Samples;Min_cycle;Max_cycle;Signal;HPM_P1;HPM_P2
2022/09/27 00:01:44;;;;;;;7.38;5.15;;;;;;;10.93;100.00;98837.47;6322479;28;20078;-76
2022/09/27 00:04:44;;;;;;;12.02;4.30;;;;;;;10.98;100.00;98839.75;6321589;28;20131;-77
2022/09/27 00:07:45;;;;;;;5.13;4.18;;;;;;;10.88;100.00;98837.88;6320696;28;20051;-76
2022/09/27 00:11:00;;;;;;;6.45;4.50;;;;;;;10.85;100.00;98827.69;6321492;28;20563;-77
2022/09/27 00:14:06;;;;;;;8.02;4.22;;;;;;;10.79;100.00;98812.53;6322889;28;20399;-78
2022/09/27 00:17:06;;;;;;;13.73;4.50;;;;;;;10.76;100.00;98820.59;6316537;28;20086;-78
2022/09/27 00:20:08;;;;;;;6.55;4.10;;;;;;;10.76;100.00;98815.38;6322554;28;20040;-76
2022/09/27 00:23:09;;;;;;;5.90;4.30;;;;;;;10.80;100.00;98815.97;6297026;28;20055;-77
2022/09/27 00:26:12;;;;;;;4.97;4.05;;;;;;;10.72;100.00;98806.16;6298195;28;20048;-77
2022/09/27 00:29:14;;;;;;;11.45;4.07;;;;;;;10.62;100.00;98798.22;6312235;28;20472;-78
2022/09/27 00:32:15;;;;;;;6.65;4.13;;;;;;;10.66;100.00;98804.84;6322438;28;20059;-78
2022/09/27 00:35:16;;;;;;;5.55;4.13;;;;;;;10.60;100.00;98794.91;6323482;28;20040;-78
2022/09/27 00:38:17;;;;;;;5.78;4.07;;;;;;;10.53;100.00;98804.22;6316277;28;20047;-78
2022/09/27 00:41:24;;;;;;;16.73;4.07;;;;;;;10.38;100.00;98782.00;6298266;28;20086;-78
2022/09/27 00:44:28;;;;;;;5.65;4.25;;;;;;;10.41;100.00;98779.94;6298446;28;20041;-78
2022/09/27 00:47:38;;;;;;;5.13;4.03;;;;;;;10.47;100.00;98763.78;6298125;28;20072;-78
2022/09/27 00:50:45;;;;;;;5.80;4.22;;;;;;;10.46;100.00;98762.16;6298034;28;20119;-76
2022/09/27 00:53:53;;;;;;;6.03;4.70;;;;;;;10.40;100.00;98760.03;6296288;28;20044;-76
2022/09/27 00:56:55;;;;;;;6.28;4.25;;;;;;;10.37;100.00;98749.03;6296804;28;20036;-78
2022/09/27 01:00:00;;;;;;;;;;;;;;;10.35;100.00;98749.16;6296982;28;20037;-76
2022/09/27 01:03:06;;;;;;;5.45;3.85;;;;;;;10.30;100.00;98748.69;6297358;28;19943;-76
2022/09/27 01:06:09;;;;;;;6.20;4.55;;;;;;;10.30;100.00;98748.69;6296092;28;20044;-77
2022/09/27 01:09:10;;;;;;;5.15;3.60;;;;;;;10.28;100.00;98751.41;6310240;28;20067;-76
2022/09/27 01:12:34;;;;;;;6.07;4.45;;;;;;;10.31;100.00;98750.34;6322424;28;20074;-76
2022/09/27 01:15:45;;;;;;;7.20;4.05;;;;;;;10.31;100.00;98747.72;6321155;28;20044;-76
2022/09/27 01:19:03;;;;;;;11.07;4.32;;;;;;;10.25;100.00;98738.63;6321930;28;20487;-78
2022/09/27 01:22:25;;;;;;;5.50;4.40;;;;;;;10.27;100.00;98738.47;6322789;28;20050;-78
2022/09/27 01:25:28;;;;;;;5.70;4.30;;;;;;;10.27;100.00;98734.09;6322805;28;20167;-78
2022/09/27 01:28:44;;;;;;;4.90;3.92;;;;;;;10.32;100.00;98727.72;6322697;28;20044;-78
2022/09/27 01:32:01;;;;;;;5.68;3.78;;;;;;;10.37;100.00;98721.16;6321499;28;20048;-79
2022/09/27 01:35:09;;;;;;;4.50;3.88;;;;;;;10.33;100.00;98724.97;6321415;28;20058;-78
2022/09/27 01:38:14;;;;;;;7.90;3.67;;;;;;;10.36;100.00;98726.53;6321457;28;20113;-78
2022/09/27 01:41:38;;;;;;;4.30;3.58;;;;;;;10.28;100.00;98712.28;6321358;28;20499;-78
2022/09/27 01:45:26;;;;;;;6.72;3.88;;;;;;;10.25;100.00;98715.16;6322911;28;20051;-78
2022/09/27 01:48:36;;;;;;;3.30;2.72;;;;;;;10.26;100.00;98703.75;6294774;28;20206;-78
2022/09/27 01:51:52;;;;;;;4.82;3.17;;;;;;;10.31;100.00;98710.41;6295878;28;20045;-77
2022/09/27 01:54:59;;;;;;;4.45;2.97;;;;;;;10.20;100.00;98716.47;6321969;28;20483;-77
2022/09/27 01:58:09;;;;;;;4.43;3.60;;;;;;;10.14;100.00;98709.97;6321954;28;20143;-76
2022/09/27 02:01:13;;;;;;;4.28;3.30;;;;;;;10.14;100.00;98711.75;6322039;28;20072;-77
2022/09/27 02:04:20;;;;;;;4.10;3.30;;;;;;;10.16;100.00;98715.06;6321884;28;20488;-78
2022/09/27 02:07:31;;;;;;;4.20;3.25;;;;;;;10.02;100.00;98714.38;6320846;28;20130;-78
2022/09/27 02:10:39;;;;;;;5.10;3.38;;;;;;;10.11;100.00;98715.44;6317911;28;20481;-78
2022/09/27 02:13:53;;;;;;;5.10;3.55;;;;;;;10.19;100.00;98709.59;6296069;28;20044;-78
2022/09/27 02:16:59;;;;;;;4.70;3.03;;;;;;;10.18;100.00;98702.72;6296894;28;20137;-78
2022/09/27 02:20:26;;;;;;;5.10;3.20;;;;;;;10.19;100.00;98701.78;6296974;28;20546;-78
2022/09/27 02:23:50;;;;;;;4.53;3.65;;;;;;;10.16;100.00;98691.59;6295798;28;20070;-78
2022/09/27 02:27:05;;;;;;;5.22;4.00;;;;;;;10.07;100.00;98699.22;6295377;28;20067;-78
2022/09/27 02:30:10;;;;;;;5.35;3.58;;;;;;;10.06;100.00;98694.13;6295870;28;20045;-78
2022/09/27 02:33:11;;;;;;;4.38;2.92;;;;;;;10.01;100.00;98699.72;6299432;28;20040;-78
2022/09/27 02:36:12;;;;;;;5.60;3.60;;;;;;;9.95;100.00;98688.97;6300903;28;20491;-76
2022/09/27 02:39:14;;;;;;;4.57;3.08;;;;;;;10.05;100.00;98700.28;6299597;28;20124;-78
2022/09/27 02:42:15;;;;;;;3.67;3.05;;;;;;;10.06;100.00;98692.34;6301131;28;20040;-77
2022/09/27 02:45:18;;;;;;;5.18;3.72;;;;;;;10.02;100.00;98690.91;6299766;28;20420;-77
2022/09/27 02:48:34;;;;;;;3.75;2.72;;;;;;;10.06;100.00;98692.34;6299696;28;20119;-78
2022/09/27 02:51:41;;;;;;;3.40;2.90;;;;;;;10.05;100.00;98692.47;6299360;28;20044;-76
2022/09/27 02:55:07;;;;;;;3.17;2.70;;;;;;;10.03;100.00;98697.00;6282611;28;20539;-78
2022/09/27 02:58:13;;;;;;;4.07;2.97;;;;;;;9.93;100.00;98698.66;6299313;28;20040;-76
2022/09/27 03:01:40;;;;;;;6.45;4.25;;;;;;;9.74;100.00;98692.31;6300044;28;20048;-76
2022/09/27 03:04:52;;;;;;;6.70;4.40;;;;;;;9.75;100.00;98691.34;6300063;28;20043;-77
2022/09/27 03:07:53;;;;;;;6.07;3.80;;;;;;;9.80;100.00;98683.16;6299000;28;20079;-77
2022/09/27 03:10:54;;;;;;;5.15;3.55;;;;;;;9.67;100.00;98685.94;6300115;28;20385;-78
2022/09/27 03:13:54;;;;;;;4.78;2.80;;;;;;;9.69;100.00;98674.44;6298921;28;20048;-77
2022/09/27 03:16:55;;;;;;;2.63;2.22;;;;;;;9.80;100.00;98677.97;6298894;28;20385;-78
2022/09/27 03:19:56;;;;;;;4.38;2.78;;;;;;;9.78;100.00;98665.06;6299691;28;20071;-78
2022/09/27 03:22:56;;;;;;;6.22;2.90;;;;;;;9.79;100.00;98666.72;6299648;28;20045;-78
2022/09/27 03:25:57;;;;;;;4.40;3.10;;;;;;;9.76;100.00;98666.97;6281935;28;20052;-78
2022/09/27 03:28:58;;;;;;;7.00;2.88;;;;;;;9.85;100.00;98679.25;6299065;28;20055;-77
2022/09/27 03:31:59;;;;;;;7.03;2.75;;;;;;;9.76;100.00;98677.41;6323717;28;20044;-77
2022/09/27 03:34:59;;;;;;;9.75;2.65;;;;;;;9.71;100.00;98676.91;6324841;28;20039;-77
2022/09/27 03:38:00;;;;;;;3.22;2.55;;;;;;;9.74;100.00;98674.09;6323288;28;20078;-77
2022/09/27 03:41:03;;;;;;;3.65;2.67;;;;;;;9.80;100.00;98676.19;6324611;28;20487;-77
2022/09/27 03:44:04;;;;;;;6.55;2.78;;;;;;;9.82;100.00;98673.44;6324569;28;20078;-77
2022/09/27 03:47:05;;;;;;;3.75;2.67;;;;;;;9.87;100.00;98676.53;6323382;28;20364;-76
2022/09/27 03:50:07;;;;;;;3.08;2.25;;;;;;;9.89;100.00;98685.06;6323274;28;20040;-77
2022/09/27 03:53:08;;;;;;;2.78;2.45;;;;;;;9.97;100.00;98681.84;6324339;28;20048;-77
2022/09/27 03:56:09;;;;;;;3.50;2.58;;;;;;;9.92;100.00;98676.16;6323002;28;20048;-76
2022/09/27 03:59:10;;;;;;;3.22;2.55;;;;;;;9.86;100.00;98674.88;6322741;28;20051;-77
2022/09/27 04:02:10;;;;;;;3.22;2.50;;;;;;;9.89;100.00;98674.63;6323889;28;20040;-77
2022/09/27 04:05:11;;;;;;;4.30;3.15;;;;;;;9.83;100.00;98675.13;6324206;28;20054;-77
2022/09/27 04:08:12;;;;;;;11.45;3.45;;;;;;;9.73;100.00;98675.03;6322878;28;20048;-77
2022/09/27 04:11:14;;;;;;;4.82;3.22;;;;;;;9.74;100.00;98675.84;6323781;28;20055;-76
2022/09/27 04:14:14;;;;;;;3.67;2.47;;;;;;;9.86;100.00;98675.72;6323685;28;20044;-77
2022/09/27 04:17:17;;;;;;;4.13;2.70;;;;;;;9.87;100.00;98668.72;6323312;28;20048;-76
2022/09/27 04:20:18;;;;;;;3.13;2.30;;;;;;;9.89;100.00;98672.84;6322391;28;20434;-77
2022/09/27 04:23:19;;;;;;;7.13;3.03;;;;;;;9.94;100.00;98667.25;6322399;28;20070;-76
2022/09/27 04:26:21;;;;;;;5.55;3.10;;;;;;;10.00;100.00;98665.94;6323575;28;20066;-77
2022/09/27 04:29:21;;;;;;;3.63;2.60;;;;;;;9.99;100.00;98653.88;6323370;28;20050;-77
2022/09/27 04:32:22;;;;;;;9.75;2.40;;;;;;;10.01;100.00;98657.19;6322231;28;20044;-77
2022/09/27 04:38:42;;;;;;;8.73;2.47;;;;;;;10.04;100.00;98655.16;6322681;28;20484;-77
2022/09/27 04:41:43;;;;;;;2.67;2.30;;;;;;;10.11;100.00;98663.31;6322780;28;20051;-76
2022/09/27 04:44:44;;;;;;;3.63;2.70;;;;;;;10.13;100.00;98661.41;6321697;28;20036;-76
2022/09/27 04:47:47;;;;;;;3.67;2.90;;;;;;;10.18;100.00;98668.84;6320726;28;20059;-76
2022/09/27 04:50:55;;;;;;;3.60;2.50;;;;;;;10.20;100.00;98667.75;6322091;28;20078;-76
2022/09/27 04:53:57;;;;;;;4.47;2.85;;;;;;;10.25;100.00;98662.16;6321834;28;20119;-77
2022/09/27 04:56:57;;;;;;;4.07;3.03;;;;;;;10.35;100.00;98668.31;6304095;28;20048;-77
2022/09/27 04:59:59;;;;;;;10.15;3.40;;;;;;;10.40;100.00;98674.00;6322222;28;20047;-77
2022/09/27 05:02:59;;;;;;;4.40;2.97;;;;;;;10.42;100.00;98664.28;6320709;28;20044;-76
2022/09/27 05:06:01;;;;;;;3.38;2.75;;;;;;;10.43;100.00;98665.09;6320749;28;20334;-76
2022/09/27 05:09:02;;;;;;;4.80;3.08;;;;;;;10.49;100.00;98668.00;6320533;28;20079;-76
2022/09/27 05:12:06;;;;;;;11.25;4.47;;;;;;;10.58;100.00;98668.19;6320391;28;20044;-76
2022/09/27 05:15:07;;;;;;;15.80;7.03;;;;;;;10.58;100.00;98666.41;6320363;28;20069;-76
2022/09/27 05:18:08;;;;;;;10.40;7.63;;;;;;;10.70;100.00;98667.19;6321316;28;20048;-76
2022/09/27 05:21:09;;;;;;;16.17;4.97;;;;;;;10.77;100.00;98664.88;6321469;28;20051;-76
2022/09/27 05:24:10;;;;;;;6.00;3.97;;;;;;;10.83;100.00;98659.16;6320254;28;20119;-77
2022/09/27 05:27:17;;;;;;;5.90;3.92;;;;;;;10.84;100.00;98655.59;6310177;28;20125;-77
2022/09/27 05:30:18;;;;;;;18.80;3.67;;;;;;;10.84;100.00;98650.38;6296803;28;20048;-77
2022/09/27 05:33:19;;;;;;;5.32;2.65;;;;;;;10.77;100.00;98657.06;6295621;28;20404;-77
2022/09/27 05:36:20;;;;;;;10.80;4.22;;;;;;;10.78;100.00;98653.50;6305472;28;20043;-77
2022/09/27 05:39:20;;;;;;;4.30;3.17;;;;;;;10.70;100.00;98646.31;6280120;28;20049;-76
2022/09/27 05:42:21;;;;;;;16.23;4.35;;;;;;;10.75;100.00;98644.16;6289996;28;20051;-77
2022/09/27 05:45:23;;;;;;;11.02;5.68;;;;;;;10.91;100.00;98645.47;6295892;28;20543;-77
2022/09/27 05:48:24;;;;;;;6.40;4.57;;;;;;;10.99;100.00;98646.44;6317853;28;20094;-77
2022/09/27 05:51:24;;;;;;;15.75;3.72;;;;;;;11.14;100.00;98646.94;6305711;28;20447;-77
2022/09/27 05:54:26;;;;;;;4.90;2.97;;;;;;;11.20;100.00;98651.66;6319924;28;20438;-78
2022/09/27 05:57:27;;;;;;;46.83;29.15;;;;;;;11.37;100.00;98647.56;6317086;28;20131;-77
2022/09/27 06:00:28;;;;;;;24.98;11.98;;;;;;;11.38;100.00;98644.00;6310973;28;20101;-78
2022/09/27 06:03:29;;;;;;;6.90;5.28;;;;;;;11.53;100.00;98635.78;6319825;28;20051;-77
2022/09/27 06:06:33;;;;;;;4.90;3.80;;;;;;;11.48;100.00;98623.94;6322283;28;20040;-78
2022/09/27 06:09:33;;;;;;;7.78;4.40;;;;;;;11.35;100.00;98626.00;6325724;28;20122;-77
2022/09/27 06:12:34;;;;;;;6.57;3.97;;;;;;;11.51;100.00;98635.94;6325536;28;20036;-78
2022/09/27 06:15:38;;;;;;;4.38;3.05;;;;;;;11.46;100.00;98633.69;6324476;28;20061;-78
2022/09/27 06:18:38;;;;;;;6.75;4.03;;;;;;;11.60;100.00;98637.72;6336528;28;20052;-79
2022/09/27 06:21:41;;;;;;;9.52;3.92;;;;;;;11.64;100.00;98633.88;6318408;28;20043;-78
2022/09/27 06:24:42;;;;;;;33.42;18.98;;;;;;;11.76;100.00;98636.41;6301735;28;20446;-78
2022/09/27 06:27:43;;;;;;;8.93;5.68;;;;;;;11.89;100.00;98639.59;6298151;28;20048;-77
2022/09/27 06:30:49;;;;;;;5.85;3.80;;;;;;;11.93;100.00;98635.75;6298673;28;20485;-77
2022/09/27 06:33:50;;;;;;;9.68;4.72;;;;;;;12.09;100.00;98636.03;6298495;28;20060;-77
2022/09/27 06:36:50;;;;;;;5.72;3.53;;;;;;;12.14;100.00;98635.59;6315463;28;20462;-77
2022/09/27 06:39:53;;;;;;;18.63;4.03;;;;;;;12.25;100.00;98632.00;6298362;28;20153;-77
2022/09/27 06:42:53;;;;;;;9.38;4.20;;;;;;;12.41;100.00;98621.81;6298438;28;20090;-77
2022/09/27 06:45:54;;;;;;;7.47;3.45;;;;;;;12.55;100.00;98617.13;6298790;28;20068;-78
2022/09/27 06:48:55;;;;;;;13.88;4.30;;;;;;;12.33;100.00;98626.91;6299111;28;20507;-78
2022/09/27 06:51:56;;;;;;;6.75;3.78;;;;;;;12.46;100.00;98619.59;6314896;28;20044;-77
2022/09/27 06:54:56;;;;;;;5.57;4.20;;;;;;;12.58;100.00;98617.66;6297928;28;20139;-77
2022/09/27 07:01:19;;;;;;;7.03;4.10;;;;;;;12.42;100.00;98620.03;6299988;28;20116;-79
2022/09/27 07:04:20;;;;;;;10.25;3.92;;;;;;;12.54;100.00;98613.69;6298969;28;20882;-78
2022/09/27 07:07:21;;;;;;;9.07;5.20;;;;;;;12.61;100.00;98612.13;6298813;28;20049;-79
2022/09/27 07:10:28;;;;;;;7.20;4.67;;;;;;;12.86;100.00;98620.31;6281613;28;20527;-79
2022/09/27 07:13:33;;;;;;;7.65;4.15;;;;;;;13.06;100.00;98621.09;6332415;28;20036;-79
2022/09/27 07:16:36;;;;;;;8.68;5.15;;;;;;;13.15;100.00;98625.44;6297793;28;20086;-79
2022/09/27 07:19:37;;;;;;;6.93;4.45;;;;;;;12.99;100.00;98620.00;6298214;28;20534;-79
2022/09/27 07:22:40;;;;;;;9.25;5.78;;;;;;;13.22;100.00;98618.66;6299187;28;20036;-79
2022/09/27 07:25:41;;;;;;;6.85;4.57;;;;;;;13.30;100.00;98624.03;6305052;28;20409;-79
2022/09/27 07:28:43;;;;;;;7.65;4.85;;;;;;;13.48;100.00;98631.91;6299429;28;20071;-79
2022/09/27 07:31:44;;;;;;;;;;;;;;;13.53;100.00;98631.50;6310709;28;20044;-80
2022/09/27 07:34:45;;;;;;;8.70;5.40;;;;;;;13.48;100.00;98626.69;6324339;28;19931;-79
2022/09/27 07:37:46;;;;;;;8.98;6.05;;;;;;;13.64;100.00;98625.22;6309041;28;20496;-79
2022/09/27 07:40:47;;;;;;;8.10;5.35;;;;;;;13.85;100.00;98612.63;6280141;28;20048;-80
2022/09/27 07:43:47;;;;;;;8.65;5.55;;;;;;;14.10;100.00;98612.84;6322392;28;20078;-77
2022/09/27 07:46:48;;;;;;;10.95;6.25;;;;;;;14.30;100.00;98619.59;6322487;28;20075;-77
2022/09/27 07:49:51;;;;;;;10.93;6.18;;;;;;;14.41;100.00;98621.16;6323541;28;20068;-80
2022/09/27 07:52:52;;;;;;;9.77;6.18;;;;;;;14.49;100.00;98615.13;6323697;28;20047;-80
2022/09/27 07:55:53;;;;;;;9.15;5.85;;;;;;;14.69;100.00;98616.59;6322212;28;20036;-77
2022/09/27 07:58:53;;;;;;;7.72;5.45;;;;;;;14.94;100.00;98622.00;6323053;28;20036;-80
2022/09/27 08:01:54;;;;;;;13.82;6.43;;;;;;;14.75;100.00;98628.28;6346128;27;20381;-80
2022/09/27 08:04:55;;;;;;;10.52;6.15;;;;;;;14.93;100.00;98622.13;6306440;28;20040;-76
2022/09/27 08:07:56;;;;;;;12.27;5.97;;;;;;;14.81;100.00;98621.59;6301502;28;20395;-77
2022/09/27 08:10:57;;;;;;;10.35;6.47;;;;;;;14.86;100.00;98627.19;6309408;28;20036;-80
2022/09/27 08:13:58;;;;;;;11.45;6.57;;;;;;;14.78;100.00;98635.84;6303533;28;20078;-80
2022/09/27 08:16:59;;;;;;;15.73;8.77;;;;;;;14.82;100.00;98624.06;6297568;28;20056;-77
2022/09/27 08:20:04;;;;;;;61.38;44.40;;;;;;;14.68;100.00;98622.84;6296370;28;20044;-81
2022/09/27 08:23:05;;;;;;;12.95;9.02;;;;;;;14.62;100.00;98623.47;6290404;28;20143;-77
2022/09/27 08:26:06;;;;;;;10.52;6.43;;;;;;;14.94;100.00;98624.63;6318373;28;20055;-80
2022/09/27 08:29:08;;;;;;;8.05;5.28;;;;;;;15.04;100.00;98612.19;6321558;28;20058;-80
2022/09/27 08:32:10;;;;;;;7.97;5.53;;;;;;;15.05;100.00;98618.25;6309372;28;20519;-77
2022/09/27 08:35:14;;;;;;;10.65;6.97;;;;;;;14.75;100.00;98609.91;6309380;28;20372;-77
2022/09/27 08:38:14;;;;;;;8.20;5.72;;;;;;;15.00;100.00;98610.84;6316028;28;20063;-77
2022/09/27 08:41:41;;;;;;;7.53;5.10;;;;;;;15.15;100.00;98624.22;6312795;28;20043;-80
2022/09/27 08:45:03;;;;;;;9.68;5.53;;;;;;;15.40;100.00;98600.66;6303290;28;20063;-80
2022/09/27 08:48:05;;;;;;;8.57;5.85;;;;;;;15.68;100.00;98603.84;6339176;27;20040;-80
2022/09/27 08:51:12;;;;;;;8.95;6.38;;;;;;;15.93;100.00;98593.41;6312891;28;20422;-77
2022/09/27 08:54:21;;;;;;;7.80;5.32;;;;;;;16.04;100.00;98595.69;6321670;28;20047;-77
2022/09/27 08:57:24;;;;;;;8.88;5.05;;;;;;;16.45;100.00;98595.69;6303426;28;20108;-77
2022/09/27 09:00:28;;;;;;;7.03;5.40;;;;;;;16.75;100.00;98598.59;6314726;28;20041;-77
2022/09/27 09:03:32;;;;;;;8.95;5.80;;;;;;;16.98;100.00;98602.19;6321675;28;20064;-80
2022/09/27 09:06:33;;;;;;;8.02;5.55;;;;;;;17.15;100.00;98600.28;6320561;28;20549;-81
2022/09/27 09:10:05;;;;;;;7.88;5.70;;;;;;;16.84;100.00;98594.97;6320433;28;20048;-77
2022/09/27 09:13:15;;;;;;;10.27;6.15;;;;;;;16.94;100.00;98607.97;6301817;28;20052;-77
2022/09/27 09:16:43;;;;;;;8.30;5.50;;;;;;;17.83;100.00;98609.38;6295400;28;20040;-81
2022/09/27 09:20:04;;;;;;;8.45;5.75;;;;;;;17.72;100.00;98609.72;6295290;28;20040;-81
2022/09/27 09:23:23;;;;;;;7.30;4.57;;;;;;;18.26;100.00;98600.94;6295105;28;20048;-77
2022/09/27 09:26:31;;;;;;;9.32;5.53;;;;;;;17.36;100.00;98590.97;6298329;28;20404;-77
2022/09/27 09:29:35;;;;;;;7.55;5.10;;;;;;;17.29;100.00;98594.28;6306349;28;20048;-81
2022/09/27 09:32:48;;;;;;;6.63;4.78;;;;;;;16.87;100.00;98592.84;6289744;28;20469;-81
2022/09/27 09:35:57;;;;;;;7.38;5.22;;;;;;;17.26;100.00;98591.22;6299132;28;20545;-81
2022/09/27 09:39:04;;;;;;;9.73;5.38;;;;;;;18.00;100.00;98578.41;6294724;28;20052;-81
2022/09/27 09:42:15;;;;;;;6.60;5.32;;;;;;;17.99;100.00;98587.31;6304961;28;20488;-79
2022/09/27 09:45:25;;;;;;;7.90;5.40;;;;;;;17.89;100.00;98584.09;6299766;28;20067;-77
2022/09/27 09:51:46;;;;;;;6.60;5.03;;;;;;;18.24;100.00;98579.19;6263991;28;20048;-75
2022/09/27 09:54:49;;;;;;;7.65;5.32;;;;;;;17.80;100.00;98567.47;6255294;28;20046;-74
2022/09/27 09:58:11;;;;;;;9.27;6.22;;;;;;;17.63;100.00;98579.97;6251851;28;20408;-74
2022/09/27 10:01:21;;;;;;;9.18;5.03;;;;;;;17.99;100.00;98574.13;6233423;28;20556;-75
2022/09/27 10:04:26;;;;;;;8.27;5.82;;;;;;;18.11;100.00;98566.59;6233713;28;20046;-73
2022/09/27 10:07:28;;;;;;;6.82;5.30;;;;;;;18.11;100.00;98564.78;6247635;28;20055;-73
2022/09/27 10:10:30;;;;;;;8.13;5.07;;;;;;;18.05;100.00;98567.31;6258357;28;20053;-75
2022/09/27 10:13:34;;;;;;;6.47;4.87;;;;;;;18.11;100.00;98564.78;6276319;28;20123;-74
2022/09/27 10:16:35;;;;;;;6.90;4.65;;;;;;;17.97;100.00;98565.56;6254915;28;20033;-73
2022/09/27 10:19:38;;;;;;;7.72;5.57;;;;;;;17.81;100.00;98568.28;6233615;28;20101;-73
2022/09/27 10:22:46;;;;;;;5.97;4.38;;;;;;;17.96;100.00;98563.13;6255453;28;20055;-73
2022/09/27 10:25:54;;;;;;;5.40;4.00;;;;;;;17.90;100.00;98562.00;6275472;28;20124;-74
2022/09/27 10:28:55;;;;;;;5.03;3.83;;;;;;;18.07;100.00;98552.94;6254906;28;20052;-73
2022/09/27 10:31:58;;;;;;;5.63;4.15;;;;;;;18.09;100.00;98556.22;6257968;28;20052;-73
2022/09/27 10:35:20;;;;;;;6.72;4.05;;;;;;;18.47;100.00;98545.66;6257798;28;20037;-73
2022/09/27 10:38:23;;;;;;;4.95;3.65;;;;;;;18.65;99.52;98539.16;6238080;28;20045;-73
2022/09/27 10:41:31;;;;;;;5.65;3.63;;;;;;;18.68;96.77;98546.75;6249406;28;20049;-73
2022/09/27 10:44:32;;;;;;;8.38;5.45;;;;;;;18.68;98.19;98550.19;6233064;28;20559;-73
2022/09/27 10:47:33;;;;;;;7.22;4.03;;;;;;;18.63;97.04;98551.75;6250609;28;20046;-73
2022/09/27 10:50:38;;;;;;;6.85;4.53;;;;;;;18.41;95.44;98546.38;6250738;28;20045;-75
2022/09/27 10:53:44;;;;;;;5.30;4.03;;;;;;;18.35;96.38;98551.56;6249894;28;20049;-75
2022/09/27 10:56:55;;;;;;;4.90;3.90;;;;;;;18.45;100.00;98542.38;6232961;28;20168;-75
2022/09/27 11:00:34;;;;;;;6.07;3.90;;;;;;;18.56;99.75;98548.19;6232881;28;20505;-75
2022/09/27 11:03:45;;;;;;;6.75;4.15;;;;;;;18.49;96.94;98542.78;6182704;28;20116;-75
2022/09/27 11:06:47;;;;;;;6.53;3.85;;;;;;;18.81;95.63;98531.09;6199357;28;20486;-75
2022/09/27 11:09:48;;;;;;;;;;;;;;;18.95;94.17;98531.28;6250395;28;20053;-73
2022/09/27 11:13:05;;;;;;;7.78;3.28;;;;;;;18.93;94.78;98523.53;6247667;28;19928;-72
2022/09/27 11:16:31;;;;;;;4.20;3.30;;;;;;;18.87;93.09;98525.06;6264477;28;20080;-73
2022/09/27 11:19:46;;;;;;;8.32;4.03;;;;;;;18.70;98.04;98516.50;6257300;28;20041;-72
2022/09/27 11:23:05;;;;;;;4.32;3.38;;;;;;;18.90;95.63;98506.22;6236072;28;20417;-73
2022/09/27 11:26:35;;;;;;;5.53;3.40;;;;;;;19.31;93.19;98500.38;6250041;28;20125;-72
2022/09/27 11:29:49;;;;;;;3.42;2.55;;;;;;;20.07;86.12;98491.88;6246899;28;20508;-73
2022/09/27 11:33:27;;;;;;;2.42;2.03;;;;;;;20.71;84.86;98490.06;6237756;28;20091;-72
2022/09/27 11:36:57;;;;;;;3.28;2.20;;;;;;;20.21;81.32;98490.16;6236539;28;20578;-73
2022/09/27 11:40:11;;;;;;;4.05;2.55;;;;;;;19.91;85.38;98489.53;6235180;28;20417;-74
2022/09/27 11:43:42;;;;;;;4.32;2.28;;;;;;;19.68;86.04;98489.72;6253537;28;20511;-74
2022/09/27 11:46:56;;;;;;;4.95;2.47;;;;;;;19.56;85.14;98484.13;6254899;28;20029;-75
2022/09/27 11:50:25;;;;;;;4.80;2.67;;;;;;;19.40;90.33;98479.09;6245333;28;20041;-73
2022/09/27 11:53:32;;;;;;;2.75;2.22;;;;;;;19.83;88.29;98471.13;6239907;28;20053;-73
2022/09/27 11:56:36;;;;;;;2.80;2.13;;;;;;;19.95;81.54;98461.66;6231095;28;20057;-73
2022/09/27 11:59:48;;;;;;;3.05;2.42;;;;;;;20.45;81.64;98457.09;6251924;28;20049;-73
2022/09/27 12:03:08;;;;;;;2.60;2.15;;;;;;;19.96;82.89;98451.91;6271517;28;20040;-73
2022/09/27 12:06:34;;;;;;;2.80;2.33;;;;;;;19.67;84.88;98453.69;6273602;28;20045;-73
2022/09/27 12:09:42;;;;;;;2.92;2.25;;;;;;;19.79;87.17;98446.91;6228773;28;20135;-73
2022/09/27 12:12:49;;;;;;;3.03;2.38;;;;;;;20.68;80.63;98440.91;6255602;28;20092;-75
2022/09/27 12:15:50;;;;;;;3.10;2.50;;;;;;;20.27;81.63;98448.84;6273379;28;20037;-75
2022/09/27 12:18:53;;;;;;;3.87;2.60;;;;;;;19.90;83.33;98435.78;6238933;28;20459;-75
2022/09/27 12:21:56;;;;;;;2.40;2.00;;;;;;;19.85;85.52;98426.78;6273375;28;20485;-76
2022/09/27 12:24:58;;;;;;;3.60;2.28;;;;;;;19.90;83.60;98432.31;6255287;28;20053;-75
2022/09/27 12:28:13;;;;;;;2.35;1.98;;;;;;;19.88;84.26;98435.16;6255016;28;20049;-73
2022/09/27 12:31:42;;;;;;;3.60;2.40;;;;;;;19.68;85.57;98447.38;6272873;28;20041;-75
2022/09/27 12:35:04;;;;;;;3.17;2.38;;;;;;;19.36;87.66;98444.28;6255091;28;20068;-75
2022/09/27 12:38:16;;;;;;;3.42;2.55;;;;;;;19.35;88.01;98442.63;6255019;28;20056;-76
2022/09/27 12:41:21;;;;;;;4.30;2.40;;;;;;;19.27;88.43;98426.88;6238310;28;20079;-75
2022/09/27 12:44:22;;;;;;;3.15;2.58;;;;;;;19.23;92.64;98421.16;6272787;28;20044;-75
2022/09/27 12:47:31;;;;;;;5.77;3.30;;;;;;;19.35;92.50;98424.09;6254850;28;20041;-73
2022/09/27 12:50:46;;;;;;;4.20;2.70;;;;;;;19.30;91.45;98416.75;6235116;28;20041;-73
2022/09/27 12:54:11;;;;;;;4.10;2.90;;;;;;;19.22;87.96;98416.06;6248520;28;20041;-73
2022/09/27 12:57:50;;;;;;;3.78;2.70;;;;;;;19.46;88.68;98405.09;6229092;28;20037;-73
2022/09/27 13:01:05;;;;;;;4.32;2.72;;;;;;;19.98;87.83;98400.41;6247163;28;20037;-73
2022/09/27 13:04:31;;;;;;;3.90;2.72;;;;;;;19.91;82.52;98394.25;6262844;28;20064;-75
2022/09/27 13:07:52;;;;;;;2.50;2.10;;;;;;;19.65;83.41;98387.75;6247306;28;20048;-75
2022/09/27 13:11:17;;;;;;;3.97;2.20;;;;;;;20.05;84.09;98384.56;6262666;28;20115;-75
2022/09/27 13:14:23;;;;;;;3.47;2.55;;;;;;;20.16;85.04;98385.81;6246081;28;20497;-74
2022/09/27 13:17:43;;;;;;;3.97;2.47;;;;;;;20.47;80.70;98377.44;6246888;28;20041;-73
2022/09/27 13:20:47;;;;;;;2.58;2.17;;;;;;;20.65;79.76;98376.91;6262326;28;20072;-73
2022/09/27 13:23:50;;;;;;;4.05;2.50;;;;;;;20.83;77.99;98355.13;6246910;28;20065;-73
2022/09/27 13:26:51;;;;;;;2.80;2.20;;;;;;;20.98;81.59;98374.34;6213033;28;20057;-75
2022/09/27 13:30:11;;;;;;;1.80;1.53;;;;;;;20.27;72.68;98358.81;6229632;28;20050;-74
2022/09/27 13:33:14;;;;;;;3.20;2.42;;;;;;;19.96;81.33;98357.44;6229406;28;20047;-75
2022/09/27 13:36:24;;;;;;;2.60;1.92;;;;;;;20.09;80.53;98348.75;6245696;28;20065;-75
2022/09/27 13:39:24;;;;;;;3.85;2.22;;;;;;;19.67;82.87;98350.50;6212887;28;20042;-74
2022/09/27 13:42:39;;;;;;;3.57;2.37;;;;;;;19.63;83.49;98351.91;6262392;28;20053;-76
2022/09/27 13:46:01;;;;;;;3.25;2.53;;;;;;;19.91;81.15;98351.91;6229346;28;20065;-75
2022/09/27 13:49:17;;;;;;;3.10;2.20;;;;;;;20.19;80.42;98346.53;6246817;28;20551;-75
2022/09/27 13:52:23;;;;;;;2.60;1.90;;;;;;;20.31;80.74;98342.31;6252598;28;20051;-75
2022/09/27 13:55:46;;;;;;;2.20;1.70;;;;;;;20.11;75.96;98342.22;6229371;28;20041;-75
2022/09/27 13:59:09;;;;;;;1.98;1.45;;;;;;;20.12;76.50;98340.41;6262101;28;20124;-74
2022/09/27 14:02:23;;;;;;;2.20;1.63;;;;;;;20.37;77.59;98338.06;6212956;28;20053;-73
2022/09/27 14:05:48;;;;;;;3.88;2.10;;;;;;;20.49;76.28;98325.88;6251986;28;20481;-73
2022/09/27 14:08:53;;;;;;;2.60;1.98;;;;;;;20.50;75.65;98332.81;6246521;28;20440;-75
2022/09/27 14:12:09;;;;;;;5.80;2.03;;;;;;;20.41;82.75;98326.06;6246501;28;20088;-73
2022/09/27 14:15:29;;;;;;;2.22;1.90;;;;;;;20.16;77.78;98317.81;6246467;28;20042;-73
2022/09/27 14:18:32;;;;;;;2.22;1.90;;;;;;;19.95;74.57;98302.03;6261312;28;20041;-73
2022/09/27 14:21:36;;;;;;;2.67;2.03;;;;;;;20.03;83.40;98304.53;6228764;28;20076;-72
2022/09/27 14:24:37;;;;;;;7.47;2.10;;;;;;;20.05;80.16;98300.66;6229092;28;20037;-72
2022/09/27 14:27:38;;;;;;;4.63;2.20;;;;;;;19.89;78.81;98298.34;6214482;28;20120;-72
2022/09/27 14:30:39;;;;;;;3.30;2.20;;;;;;;19.86;79.49;98302.19;6233738;28;20053;-72
2022/09/27 14:33:40;;;;;;;11.32;2.10;;;;;;;19.62;83.46;98292.06;6251159;28;20037;-72
2022/09/27 14:40:06;;;;;;;2.50;1.88;;;;;;;19.37;84.42;98295.16;6251034;28;20037;-74
2022/09/27 14:43:14;;;;;;;5.60;2.50;;;;;;;19.32;84.77;98295.75;6249897;28;20057;-75
2022/09/27 14:46:28;;;;;;;10.02;2.45;;;;;;;19.48;87.72;98299.13;6233713;28;20072;-75